VLG47BA LEAS-EGCC
Flight info
| Callsign | VLG47BA |
|---|---|
| Flight time | 1h 44m |
| Altitude | 36000 |
| Route | MAVOS M30 LOTEE DCT EKDAP DCT NTS UY110 REN UN862 UPALO UP87 ROXOG L982 VASUX UN867 AVANT UM184 HEMEL T420 AKUPA UY250 LESTA |
| Aircraft | A320/M-SDE3FGHIRWY/LB1 |
Departure
| Time | 2026-04-26 16:16 |
|---|---|
| Airport | Asturias Airport (LEAS) |
Arrival
| Time | 2026-04-26 18:00 |
|---|---|
| Airport | Manchester Airport (EGCC) |
| Time | Latitude | Longitude | Altitude | Speed | Heading |
|---|---|---|---|---|---|
| 2026-04-26 15:44 | 43.55938 | -6.02966 | 426 ft | 0 kts | 241° |
| 2026-04-26 16:07 | 43.55946 | -6.02971 | 426 ft | 2 kts | 1° |
| 2026-04-26 16:07 | 43.55992 | -6.02973 | 424 ft | 12 kts | 307° |
| 2026-04-26 16:08 | 43.56029 | -6.03110 | 421 ft | 13 kts | 288° |
| 2026-04-26 16:08 | 43.56032 | -6.03122 | 426 ft | 0 kts | 288° |
| 2026-04-26 16:08 | 43.56037 | -6.03141 | 426 ft | 3 kts | 288° |
| 2026-04-26 16:08 | 43.56047 | -6.03184 | 414 ft | 6 kts | 288° |
| 2026-04-26 16:09 | 43.56062 | -6.03228 | 417 ft | 5 kts | 316° |
| 2026-04-26 16:09 | 43.56081 | -6.03229 | 417 ft | 7 kts | 5° |
| 2026-04-26 16:09 | 43.56140 | -6.03255 | 414 ft | 13 kts | 303° |
| 2026-04-26 16:09 | 43.56174 | -6.03390 | 422 ft | 16 kts | 288° |
| 2026-04-26 16:10 | 43.56213 | -6.03553 | 415 ft | 21 kts | 288° |
| 2026-04-26 16:10 | 43.56260 | -6.03752 | 424 ft | 20 kts | 288° |
| 2026-04-26 16:10 | 43.56308 | -6.03955 | 417 ft | 25 kts | 288° |
| 2026-04-26 16:10 | 43.56364 | -6.04189 | 415 ft | 27 kts | 288° |
| 2026-04-26 16:11 | 43.56421 | -6.04428 | 416 ft | 24 kts | 288° |
| 2026-04-26 16:11 | 43.56465 | -6.04624 | 423 ft | 20 kts | 289° |
| 2026-04-26 16:11 | 43.56507 | -6.04697 | 426 ft | 0 kts | 323° |
| 2026-04-26 16:13 | 43.56516 | -6.04705 | 416 ft | 7 kts | 328° |
| 2026-04-26 16:13 | 43.56572 | -6.04743 | 419 ft | 10 kts | 334° |
| 2026-04-26 16:14 | 43.56647 | -6.04699 | 427 ft | 12 kts | 88° |
| 2026-04-26 16:14 | 43.56638 | -6.04647 | 426 ft | 0 kts | 107° |
| 2026-04-26 16:15 | 43.56635 | -6.04636 | 422 ft | 6 kts | 107° |
| 2026-04-26 16:16 | 43.56287 | -6.03160 | 432 ft | 151 kts | 108° |
| 2026-04-26 16:16 | 43.55928 | -6.01686 | 991 ft | 164 kts | 106° |
| 2026-04-26 16:16 | 43.55568 | -6.00190 | 1779 ft | 168 kts | 107° |
| 2026-04-26 16:16 | 43.55181 | -5.98564 | 2185 ft | 189 kts | 107° |
| 2026-04-26 16:17 | 43.54754 | -5.96728 | 2529 ft | 214 kts | 106° |
| 2026-04-26 16:17 | 43.54271 | -5.94662 | 3009 ft | 239 kts | 106° |
| 2026-04-26 16:17 | 43.53743 | -5.92428 | 3745 ft | 255 kts | 107° |
| 2026-04-26 16:17 | 43.53398 | -5.90023 | 4710 ft | 261 kts | 85° |
| 2026-04-26 16:18 | 43.54028 | -5.87687 | 5651 ft | 267 kts | 51° |
| 2026-04-26 16:18 | 43.57469 | -5.86150 | 7561 ft | 283 kts | 344° |
| 2026-04-26 16:19 | 43.60296 | -5.89850 | 9464 ft | 293 kts | 300° |
| 2026-04-26 16:19 | 43.61587 | -5.92009 | 10347 ft | 297 kts | 324° |
| 2026-04-26 16:19 | 43.65807 | -5.93279 | 11017 ft | 343 kts | 4° |
| 2026-04-26 16:20 | 43.68237 | -5.92943 | 11501 ft | 356 kts | 7° |
| 2026-04-26 16:20 | 43.73257 | -5.92246 | 12925 ft | 368 kts | 3° |
| 2026-04-26 16:20 | 43.75820 | -5.92130 | 13664 ft | 371 kts | 360° |
| 2026-04-26 16:21 | 43.78412 | -5.92163 | 14391 ft | 374 kts | 358° |
| 2026-04-26 16:21 | 43.81029 | -5.92286 | 15075 ft | 378 kts | 357° |
| 2026-04-26 16:21 | 43.83635 | -5.92447 | 15711 ft | 382 kts | 357° |
| 2026-04-26 16:21 | 43.86305 | -5.92612 | 16325 ft | 386 kts | 357° |
| 2026-04-26 16:22 | 43.89002 | -5.92761 | 16940 ft | 390 kts | 358° |
| 2026-04-26 16:22 | 43.91729 | -5.92892 | 17553 ft | 394 kts | 358° |
| 2026-04-26 16:22 | 43.94483 | -5.93011 | 18156 ft | 399 kts | 358° |
| 2026-04-26 16:22 | 43.97270 | -5.93129 | 18766 ft | 402 kts | 358° |
| 2026-04-26 16:23 | 44.00084 | -5.93247 | 19384 ft | 406 kts | 358° |
| 2026-04-26 16:23 | 44.02879 | -5.93361 | 19978 ft | 409 kts | 357° |
| 2026-04-26 16:23 | 44.05738 | -5.93384 | 20544 ft | 413 kts | 3° |
| 2026-04-26 16:23 | 44.08611 | -5.92966 | 21086 ft | 417 kts | 6° |
| 2026-04-26 16:24 | 44.11512 | -5.92490 | 21623 ft | 422 kts | 6° |
| 2026-04-26 16:24 | 44.14434 | -5.92014 | 22159 ft | 424 kts | 6° |
| 2026-04-26 16:24 | 44.17377 | -5.91540 | 22668 ft | 428 kts | 6° |
| 2026-04-26 16:24 | 44.20347 | -5.91063 | 23141 ft | 431 kts | 6° |
| 2026-04-26 16:25 | 44.23337 | -5.90582 | 23631 ft | 435 kts | 6° |
| 2026-04-26 16:25 | 44.26352 | -5.90102 | 24086 ft | 437 kts | 6° |
| 2026-04-26 16:25 | 44.29384 | -5.89618 | 24530 ft | 440 kts | 6° |
| 2026-04-26 16:25 | 44.32392 | -5.89134 | 24960 ft | 443 kts | 6° |
| 2026-04-26 16:26 | 44.35466 | -5.88635 | 25384 ft | 446 kts | 6° |
| 2026-04-26 16:26 | 44.38557 | -5.88130 | 25793 ft | 449 kts | 5° |
| 2026-04-26 16:26 | 44.41672 | -5.87619 | 26201 ft | 452 kts | 5° |
| 2026-04-26 16:26 | 44.44801 | -5.87106 | 26621 ft | 454 kts | 6° |
| 2026-04-26 16:27 | 44.47953 | -5.86588 | 27034 ft | 457 kts | 5° |
| 2026-04-26 16:27 | 44.51122 | -5.86074 | 27426 ft | 460 kts | 5° |
| 2026-04-26 16:27 | 44.54305 | -5.85565 | 27808 ft | 462 kts | 5° |
| 2026-04-26 16:27 | 44.57466 | -5.85058 | 28177 ft | 465 kts | 5° |
| 2026-04-26 16:28 | 44.60679 | -5.84416 | 28550 ft | 468 kts | 10° |
| 2026-04-26 16:28 | 44.63814 | -5.83115 | 28902 ft | 473 kts | 20° |
| 2026-04-26 16:28 | 44.66785 | -5.81099 | 29270 ft | 477 kts | 30° |
| 2026-04-26 16:28 | 44.69506 | -5.78417 | 29623 ft | 480 kts | 39° |
| 2026-04-26 16:29 | 44.71932 | -5.75182 | 30015 ft | 481 kts | 45° |
| 2026-04-26 16:29 | 44.74293 | -5.71847 | 30500 ft | 481 kts | 44° |
| 2026-04-26 16:29 | 44.76658 | -5.68521 | 31008 ft | 480 kts | 44° |
| 2026-04-26 16:29 | 44.78984 | -5.65248 | 31513 ft | 479 kts | 44° |
| 2026-04-26 16:30 | 44.81334 | -5.61939 | 32021 ft | 477 kts | 44° |
| 2026-04-26 16:30 | 44.83677 | -5.58638 | 32511 ft | 477 kts | 44° |
| 2026-04-26 16:30 | 44.86022 | -5.55329 | 33005 ft | 476 kts | 44° |
| 2026-04-26 16:30 | 44.88353 | -5.52029 | 33490 ft | 475 kts | 44° |
| 2026-04-26 16:31 | 44.90677 | -5.48731 | 33957 ft | 474 kts | 44° |
| 2026-04-26 16:31 | 44.92998 | -5.45437 | 34423 ft | 473 kts | 44° |
| 2026-04-26 16:31 | 44.95314 | -5.42142 | 34895 ft | 472 kts | 44° |
| 2026-04-26 16:31 | 44.97580 | -5.38903 | 35331 ft | 470 kts | 44° |
| 2026-04-26 16:32 | 44.99876 | -5.35624 | 35745 ft | 470 kts | 44° |
| 2026-04-26 16:32 | 45.01430 | -5.33405 | 36016 ft | 469 kts | 45° |
| 2026-04-26 16:32 | 45.04478 | -5.29058 | 36178 ft | 470 kts | 44° |
| 2026-04-26 16:32 | 45.06783 | -5.25769 | 36190 ft | 471 kts | 44° |
| 2026-04-26 16:33 | 45.11381 | -5.19174 | 36196 ft | 471 kts | 44° |
| 2026-04-26 16:33 | 45.15947 | -5.12611 | 36195 ft | 471 kts | 45° |
| 2026-04-26 16:34 | 45.20548 | -5.05998 | 36196 ft | 470 kts | 45° |
| 2026-04-26 16:34 | 45.25136 | -4.99386 | 36196 ft | 471 kts | 44° |
| 2026-04-26 16:35 | 45.29725 | -4.92741 | 36194 ft | 471 kts | 44° |
| 2026-04-26 16:35 | 45.34197 | -4.85912 | 36196 ft | 473 kts | 48° |
| 2026-04-26 16:36 | 45.38413 | -4.78733 | 36205 ft | 473 kts | 50° |
| 2026-04-26 16:36 | 45.42523 | -4.71548 | 36200 ft | 471 kts | 49° |
| 2026-04-26 16:37 | 45.46717 | -4.64367 | 36197 ft | 471 kts | 49° |
| 2026-04-26 16:37 | 45.50942 | -4.57237 | 36190 ft | 471 kts | 49° |
| 2026-04-26 16:38 | 45.55170 | -4.50079 | 36200 ft | 472 kts | 49° |
| 2026-04-26 16:38 | 45.59354 | -4.42953 | 36199 ft | 472 kts | 49° |
| 2026-04-26 16:39 | 45.63554 | -4.35752 | 36206 ft | 472 kts | 49° |
| 2026-04-26 16:39 | 45.67749 | -4.28534 | 36209 ft | 472 kts | 49° |
| 2026-04-26 16:40 | 45.71945 | -4.21304 | 36207 ft | 472 kts | 49° |
| 2026-04-26 16:40 | 45.76142 | -4.14068 | 36212 ft | 472 kts | 49° |
| 2026-04-26 16:41 | 45.80322 | -4.06882 | 36213 ft | 473 kts | 49° |
| 2026-04-26 16:41 | 45.84516 | -3.99620 | 36208 ft | 472 kts | 49° |
| 2026-04-26 16:42 | 45.88694 | -3.92323 | 36204 ft | 473 kts | 49° |
| 2026-04-26 16:42 | 45.92852 | -3.85083 | 36204 ft | 473 kts | 49° |
| 2026-04-26 16:43 | 45.97026 | -3.77789 | 36201 ft | 473 kts | 49° |
| 2026-04-26 16:43 | 46.01199 | -3.70487 | 36197 ft | 472 kts | 49° |
| 2026-04-26 16:44 | 46.05364 | -3.63194 | 36178 ft | 472 kts | 50° |
| 2026-04-26 16:44 | 46.09518 | -3.55867 | 36200 ft | 472 kts | 50° |
| 2026-04-26 16:45 | 46.13672 | -3.48534 | 36213 ft | 473 kts | 49° |
| 2026-04-26 16:45 | 46.17788 | -3.41242 | 36205 ft | 471 kts | 49° |
| 2026-04-26 16:46 | 46.21917 | -3.33906 | 36199 ft | 471 kts | 49° |
| 2026-04-26 16:46 | 46.26050 | -3.26563 | 36205 ft | 471 kts | 49° |
| 2026-04-26 16:47 | 46.30179 | -3.19204 | 36196 ft | 471 kts | 49° |
| 2026-04-26 16:47 | 46.34268 | -3.11889 | 36208 ft | 471 kts | 50° |
| 2026-04-26 16:48 | 46.38378 | -3.04516 | 36213 ft | 470 kts | 49° |
| 2026-04-26 16:48 | 46.42486 | -2.97137 | 36213 ft | 470 kts | 50° |
| 2026-04-26 16:49 | 46.46573 | -2.89768 | 36218 ft | 468 kts | 49° |
| 2026-04-26 16:49 | 46.50622 | -2.82450 | 36224 ft | 467 kts | 49° |
| 2026-04-26 16:50 | 46.54682 | -2.75086 | 36213 ft | 467 kts | 50° |
| 2026-04-26 16:50 | 46.58739 | -2.67703 | 36201 ft | 467 kts | 50° |
| 2026-04-26 16:51 | 46.62788 | -2.60316 | 36202 ft | 467 kts | 50° |
| 2026-04-26 16:51 | 46.66804 | -2.52970 | 36190 ft | 467 kts | 50° |
| 2026-04-26 16:52 | 46.70170 | -2.46817 | 36200 ft | 467 kts | 49° |
| 2026-04-26 16:52 | 46.74895 | -2.38158 | 36211 ft | 467 kts | 50° |
| 2026-04-26 16:53 | 46.78926 | -2.30727 | 36212 ft | 467 kts | 50° |
| 2026-04-26 16:53 | 46.82928 | -2.23318 | 36208 ft | 468 kts | 50° |
| 2026-04-26 16:54 | 46.86971 | -2.15851 | 36221 ft | 469 kts | 50° |
| 2026-04-26 16:54 | 46.91002 | -2.08373 | 36211 ft | 468 kts | 50° |
| 2026-04-26 16:55 | 46.95027 | -2.00868 | 36201 ft | 467 kts | 50° |
| 2026-04-26 16:55 | 46.99032 | -1.93377 | 36177 ft | 468 kts | 50° |
| 2026-04-26 16:56 | 47.05005 | -1.82212 | 36180 ft | 466 kts | 50° |
| 2026-04-26 16:57 | 47.08993 | -1.74702 | 36179 ft | 467 kts | 50° |
| 2026-04-26 16:57 | 47.16116 | -1.65288 | 36177 ft | 459 kts | 24° |
| 2026-04-26 16:58 | 47.19056 | -1.63559 | 36179 ft | 455 kts | 13° |
| 2026-04-26 16:58 | 47.21091 | -1.62856 | 36181 ft | 452 kts | 6° |
| 2026-04-26 16:58 | 47.28299 | -1.62935 | 36166 ft | 445 kts | 352° |
| 2026-04-26 16:59 | 47.31387 | -1.63353 | 36161 ft | 445 kts | 352° |
| 2026-04-26 17:00 | 47.43743 | -1.65072 | 36164 ft | 447 kts | 351° |
| 2026-04-26 17:00 | 47.52997 | -1.66404 | 36177 ft | 448 kts | 351° |
| 2026-04-26 17:01 | 47.59205 | -1.67293 | 36179 ft | 448 kts | 352° |
| 2026-04-26 17:01 | 47.65419 | -1.68189 | 36176 ft | 449 kts | 351° |
| 2026-04-26 17:02 | 47.71636 | -1.69080 | 36182 ft | 450 kts | 351° |
| 2026-04-26 17:02 | 47.77820 | -1.69957 | 36198 ft | 449 kts | 351° |
| 2026-04-26 17:03 | 47.84035 | -1.70854 | 36203 ft | 449 kts | 351° |
| 2026-04-26 17:03 | 47.90258 | -1.71765 | 36195 ft | 450 kts | 352° |
| 2026-04-26 17:04 | 47.96492 | -1.72661 | 36210 ft | 450 kts | 351° |
| 2026-04-26 17:04 | 48.02686 | -1.73558 | 36211 ft | 450 kts | 351° |
| 2026-04-26 17:05 | 48.08934 | -1.74200 | 36209 ft | 451 kts | 356° |
| 2026-04-26 17:05 | 48.15210 | -1.74265 | 36203 ft | 452 kts | 356° |
| 2026-04-26 17:06 | 48.21492 | -1.74338 | 36202 ft | 451 kts | 356° |
| 2026-04-26 17:06 | 48.27775 | -1.74415 | 36201 ft | 452 kts | 356° |
| 2026-04-26 17:07 | 48.34019 | -1.74497 | 36205 ft | 452 kts | 356° |
| 2026-04-26 17:07 | 48.40301 | -1.74580 | 36211 ft | 451 kts | 356° |
| 2026-04-26 17:08 | 48.46583 | -1.74638 | 36215 ft | 452 kts | 356° |
| 2026-04-26 17:08 | 48.52872 | -1.74717 | 36221 ft | 452 kts | 356° |
| 2026-04-26 17:09 | 48.58091 | -1.74787 | 36224 ft | 452 kts | 356° |
| 2026-04-26 17:09 | 48.65399 | -1.74883 | 36232 ft | 452 kts | 356° |
| 2026-04-26 17:10 | 48.71693 | -1.74962 | 36240 ft | 451 kts | 356° |
| 2026-04-26 17:10 | 48.77972 | -1.75034 | 36235 ft | 452 kts | 356° |
| 2026-04-26 17:11 | 48.84260 | -1.75107 | 36233 ft | 452 kts | 356° |
| 2026-04-26 17:11 | 48.90516 | -1.75194 | 36238 ft | 453 kts | 356° |
| 2026-04-26 17:12 | 48.99966 | -1.74972 | 36234 ft | 451 kts | 358° |
| 2026-04-26 17:13 | 49.09396 | -1.74485 | 36228 ft | 452 kts | 358° |
| 2026-04-26 17:14 | 49.18775 | -1.74130 | 36222 ft | 451 kts | 358° |
| 2026-04-26 17:14 | 49.28190 | -1.73778 | 36223 ft | 451 kts | 358° |
| 2026-04-26 17:15 | 49.37617 | -1.73419 | 36234 ft | 453 kts | 358° |
| 2026-04-26 17:16 | 49.43866 | -1.73181 | 36248 ft | 452 kts | 358° |
| 2026-04-26 17:16 | 49.50158 | -1.72929 | 36242 ft | 453 kts | 358° |
| 2026-04-26 17:17 | 49.56455 | -1.72677 | 36252 ft | 452 kts | 358° |
| 2026-04-26 17:17 | 49.62751 | -1.72395 | 36257 ft | 454 kts | 359° |
| 2026-04-26 17:18 | 49.69021 | -1.71868 | 36264 ft | 454 kts | 0° |
| 2026-04-26 17:18 | 49.75327 | -1.71255 | 36266 ft | 454 kts | 0° |
| 2026-04-26 17:19 | 49.84796 | -1.70426 | 36271 ft | 455 kts | 359° |
| 2026-04-26 17:19 | 49.91114 | -1.69913 | 36270 ft | 454 kts | 359° |
| 2026-04-26 17:20 | 49.96353 | -1.69471 | 36278 ft | 454 kts | 360° |
| 2026-04-26 17:20 | 50.03612 | -1.67437 | 36276 ft | 460 kts | 14° |
| 2026-04-26 17:21 | 50.09728 | -1.64462 | 36272 ft | 461 kts | 14° |
| 2026-04-26 17:21 | 50.12707 | -1.63007 | 36703 ft | 462 kts | 16° |
| 2026-04-26 17:21 | 50.15776 | -1.61517 | 36488 ft | 462 kts | 14° |
| 2026-04-26 17:22 | 50.18808 | -1.60050 | 36302 ft | 462 kts | 14° |
| 2026-04-26 17:22 | 50.21871 | -1.58569 | 36257 ft | 461 kts | 15° |
| 2026-04-26 17:22 | 50.27753 | -1.54468 | 36269 ft | 467 kts | 31° |
| 2026-04-26 17:23 | 50.32862 | -1.48134 | 36268 ft | 469 kts | 38° |
| 2026-04-26 17:23 | 50.37891 | -1.41597 | 36272 ft | 470 kts | 37° |
| 2026-04-26 17:24 | 50.42933 | -1.35064 | 36294 ft | 470 kts | 37° |
| 2026-04-26 17:24 | 50.47930 | -1.28551 | 36292 ft | 470 kts | 38° |
| 2026-04-26 17:25 | 50.53196 | -1.22569 | 36292 ft | 466 kts | 30° |
| 2026-04-26 17:25 | 50.58681 | -1.17137 | 36288 ft | 465 kts | 30° |
| 2026-04-26 17:26 | 50.64156 | -1.11698 | 36288 ft | 465 kts | 30° |
| 2026-04-26 17:26 | 50.69593 | -1.06280 | 36295 ft | 466 kts | 30° |
| 2026-04-26 17:27 | 50.75058 | -1.00820 | 36293 ft | 466 kts | 30° |
| 2026-04-26 17:27 | 50.80548 | -0.95352 | 36289 ft | 464 kts | 26° |
| 2026-04-26 17:28 | 50.86461 | -0.91545 | 36288 ft | 458 kts | 14° |
| 2026-04-26 17:28 | 50.92527 | -0.88424 | 36294 ft | 459 kts | 15° |
| 2026-04-26 17:29 | 50.97571 | -0.85821 | 36281 ft | 459 kts | 15° |
| 2026-04-26 17:29 | 51.04618 | -0.82147 | 36281 ft | 459 kts | 15° |
| 2026-04-26 17:30 | 51.10668 | -0.78986 | 36256 ft | 457 kts | 15° |
| 2026-04-26 17:30 | 51.16696 | -0.75840 | 36256 ft | 456 kts | 15° |
| 2026-04-26 17:31 | 51.22737 | -0.72682 | 36259 ft | 457 kts | 15° |
| 2026-04-26 17:31 | 51.28734 | -0.69535 | 36269 ft | 458 kts | 15° |
| 2026-04-26 17:32 | 51.34787 | -0.66336 | 36280 ft | 458 kts | 15° |
| 2026-04-26 17:32 | 51.40837 | -0.63136 | 36280 ft | 458 kts | 15° |
| 2026-04-26 17:33 | 51.46897 | -0.59941 | 36279 ft | 458 kts | 15° |
| 2026-04-26 17:34 | 51.55943 | -0.55142 | 36286 ft | 459 kts | 15° |
| 2026-04-26 17:34 | 51.62000 | -0.51908 | 36291 ft | 459 kts | 15° |
| 2026-04-26 17:35 | 51.68055 | -0.48670 | 36313 ft | 459 kts | 15° |
| 2026-04-26 17:35 | 51.74132 | -0.45528 | 36309 ft | 457 kts | 9° |
| 2026-04-26 17:36 | 51.80344 | -0.44913 | 36329 ft | 448 kts | 349° |
| 2026-04-26 17:36 | 51.86255 | -0.47622 | 36326 ft | 439 kts | 330° |
| 2026-04-26 17:37 | 51.91500 | -0.52571 | 36318 ft | 437 kts | 326° |
| 2026-04-26 17:37 | 51.96704 | -0.57644 | 36306 ft | 436 kts | 326° |
| 2026-04-26 17:38 | 52.04516 | -0.65277 | 36301 ft | 437 kts | 326° |
| 2026-04-26 17:38 | 52.09674 | -0.70359 | 36293 ft | 437 kts | 325° |
| 2026-04-26 17:39 | 52.14876 | -0.75482 | 36290 ft | 437 kts | 326° |
| 2026-04-26 17:39 | 52.20074 | -0.80603 | 36293 ft | 437 kts | 325° |
| 2026-04-26 17:40 | 52.23543 | -0.84048 | 36290 ft | 437 kts | 325° |
| 2026-04-26 17:40 | 52.27853 | -0.88326 | 36178 ft | 436 kts | 325° |
| 2026-04-26 17:40 | 52.30463 | -0.90922 | 35292 ft | 442 kts | 325° |
| 2026-04-26 17:41 | 52.33096 | -0.93553 | 34402 ft | 446 kts | 325° |
| 2026-04-26 17:41 | 52.35718 | -0.96172 | 33483 ft | 449 kts | 325° |
| 2026-04-26 17:41 | 52.38397 | -0.98843 | 32497 ft | 452 kts | 325° |
| 2026-04-26 17:41 | 52.41089 | -1.01530 | 31487 ft | 455 kts | 326° |
| 2026-04-26 17:42 | 52.43799 | -1.04237 | 30475 ft | 458 kts | 326° |
| 2026-04-26 17:42 | 52.46662 | -1.06595 | 29289 ft | 465 kts | 335° |
| 2026-04-26 17:42 | 52.49778 | -1.08127 | 28047 ft | 472 kts | 346° |
| 2026-04-26 17:42 | 52.53033 | -1.08734 | 26791 ft | 467 kts | 355° |
| 2026-04-26 17:43 | 52.56279 | -1.08606 | 25073 ft | 466 kts | 359° |
| 2026-04-26 17:43 | 52.59435 | -1.08361 | 24036 ft | 452 kts | 360° |
| 2026-04-26 17:43 | 52.62518 | -1.08103 | 23273 ft | 440 kts | 0° |
| 2026-04-26 17:43 | 52.65577 | -1.07861 | 22422 ft | 437 kts | 360° |
| 2026-04-26 17:44 | 52.68599 | -1.07693 | 21606 ft | 432 kts | 355° |
| 2026-04-26 17:44 | 52.71520 | -1.08427 | 20810 ft | 419 kts | 340° |
| 2026-04-26 17:44 | 52.74190 | -1.10091 | 20055 ft | 404 kts | 331° |
| 2026-04-26 17:44 | 52.76566 | -1.12535 | 19555 ft | 404 kts | 320° |
| 2026-04-26 17:45 | 52.78607 | -1.15720 | 18998 ft | 405 kts | 309° |
| 2026-04-26 17:45 | 52.80456 | -1.19233 | 18409 ft | 404 kts | 308° |
| 2026-04-26 17:45 | 52.82272 | -1.22688 | 17832 ft | 402 kts | 309° |
| 2026-04-26 17:45 | 52.84102 | -1.26163 | 17277 ft | 398 kts | 309° |
| 2026-04-26 17:46 | 52.85909 | -1.29599 | 16727 ft | 394 kts | 309° |
| 2026-04-26 17:46 | 52.87703 | -1.33013 | 16181 ft | 391 kts | 309° |
| 2026-04-26 17:46 | 52.89476 | -1.36395 | 15646 ft | 388 kts | 309° |
| 2026-04-26 17:46 | 52.91229 | -1.39757 | 15110 ft | 383 kts | 309° |
| 2026-04-26 17:47 | 52.92967 | -1.43086 | 14587 ft | 380 kts | 309° |
| 2026-04-26 17:47 | 52.93529 | -1.44159 | 14417 ft | 379 kts | 309° |
| 2026-04-26 17:47 | 52.96401 | -1.49653 | 13493 ft | 374 kts | 309° |
| 2026-04-26 17:47 | 52.98071 | -1.52867 | 12996 ft | 371 kts | 309° |
| 2026-04-26 17:48 | 52.99748 | -1.56103 | 12468 ft | 368 kts | 309° |
| 2026-04-26 17:48 | 53.01383 | -1.59250 | 12121 ft | 352 kts | 309° |
| 2026-04-26 17:48 | 53.02948 | -1.62272 | 11989 ft | 338 kts | 309° |
| 2026-04-26 17:48 | 53.04441 | -1.65146 | 11842 ft | 317 kts | 309° |
| 2026-04-26 17:49 | 53.05829 | -1.67823 | 11558 ft | 297 kts | 309° |
| 2026-04-26 17:49 | 53.07157 | -1.70394 | 11309 ft | 291 kts | 309° |
| 2026-04-26 17:49 | 53.08467 | -1.72934 | 11060 ft | 289 kts | 309° |
| 2026-04-26 17:49 | 53.09755 | -1.75431 | 10811 ft | 288 kts | 309° |
| 2026-04-26 17:50 | 53.11055 | -1.77948 | 10572 ft | 286 kts | 309° |
| 2026-04-26 17:50 | 53.12351 | -1.80464 | 10337 ft | 286 kts | 309° |
| 2026-04-26 17:50 | 53.13642 | -1.82973 | 10150 ft | 285 kts | 309° |
| 2026-04-26 17:50 | 53.14930 | -1.85481 | 10026 ft | 285 kts | 308° |
| 2026-04-26 17:51 | 53.16218 | -1.87992 | 9761 ft | 284 kts | 309° |
| 2026-04-26 17:51 | 53.17499 | -1.90487 | 9407 ft | 283 kts | 309° |
| 2026-04-26 17:51 | 53.18773 | -1.92972 | 9029 ft | 282 kts | 309° |
| 2026-04-26 17:51 | 53.20023 | -1.95419 | 8655 ft | 280 kts | 309° |
| 2026-04-26 17:52 | 53.21276 | -1.97874 | 8446 ft | 274 kts | 309° |
| 2026-04-26 17:52 | 53.22523 | -2.00208 | 8301 ft | 265 kts | 316° |
| 2026-04-26 17:52 | 53.24042 | -2.01874 | 8146 ft | 261 kts | 335° |
| 2026-04-26 17:52 | 53.25799 | -2.02618 | 7844 ft | 264 kts | 354° |
| 2026-04-26 17:53 | 53.27637 | -2.02479 | 7611 ft | 264 kts | 3° |
| 2026-04-26 17:53 | 53.29462 | -2.02239 | 7356 ft | 262 kts | 2° |
| 2026-04-26 17:53 | 53.31229 | -2.02015 | 7223 ft | 246 kts | 2° |
| 2026-04-26 17:54 | 53.34413 | -2.01622 | 6715 ft | 223 kts | 1° |
| 2026-04-26 17:54 | 53.35970 | -2.01440 | 6269 ft | 220 kts | 1° |
| 2026-04-26 17:54 | 53.37492 | -2.01258 | 5829 ft | 218 kts | 2° |
| 2026-04-26 17:54 | 53.38985 | -2.01077 | 5508 ft | 217 kts | 3° |
| 2026-04-26 17:55 | 53.40480 | -2.00893 | 5063 ft | 217 kts | 2° |
| 2026-04-26 17:55 | 53.42003 | -2.00709 | 4515 ft | 220 kts | 1° |
| 2026-04-26 17:55 | 53.43500 | -2.00555 | 4263 ft | 209 kts | 356° |
| 2026-04-26 17:55 | 53.44793 | -2.01235 | 4143 ft | 189 kts | 322° |
| 2026-04-26 17:56 | 53.45585 | -2.02836 | 4029 ft | 176 kts | 291° |
| 2026-04-26 17:56 | 53.45325 | -2.06761 | 3239 ft | 179 kts | 236° |
| 2026-04-26 17:57 | 53.43804 | -2.09963 | 2709 ft | 172 kts | 231° |
| 2026-04-26 17:57 | 53.43064 | -2.11509 | 2469 ft | 170 kts | 231° |
| 2026-04-26 17:57 | 53.42340 | -2.13019 | 2246 ft | 167 kts | 230° |
| 2026-04-26 17:57 | 53.41615 | -2.14529 | 2024 ft | 165 kts | 230° |
| 2026-04-26 17:58 | 53.39665 | -2.18587 | 1425 ft | 132 kts | 231° |
| 2026-04-26 17:59 | 53.38532 | -2.20939 | 1060 ft | 130 kts | 229° |
| 2026-04-26 17:59 | 53.37962 | -2.22123 | 853 ft | 130 kts | 230° |
| 2026-04-26 17:59 | 53.37392 | -2.23309 | 685 ft | 132 kts | 231° |
| 2026-04-26 17:59 | 53.36829 | -2.24479 | 528 ft | 131 kts | 230° |
| 2026-04-26 18:00 | 53.36256 | -2.25669 | 331 ft | 131 kts | 230° |
| 2026-04-26 18:00 | 53.35698 | -2.26826 | 268 ft | 118 kts | 230° |
| 2026-04-26 18:00 | 53.35288 | -2.27682 | 239 ft | 69 kts | 231° |
| 2026-04-26 18:00 | 53.35033 | -2.28205 | 232 ft | 48 kts | 233° |
| 2026-04-26 18:01 | 53.34950 | -2.28576 | 230 ft | 22 kts | 263° |
| 2026-04-26 18:01 | 53.34947 | -2.28689 | 228 ft | 11 kts | 278° |
| 2026-04-26 18:01 | 53.35012 | -2.28733 | 228 ft | 13 kts | 30° |
| 2026-04-26 18:01 | 53.35081 | -2.28612 | 229 ft | 16 kts | 50° |
| 2026-04-26 18:02 | 53.35161 | -2.28444 | 227 ft | 21 kts | 51° |
| 2026-04-26 18:02 | 53.35187 | -2.28392 | 229 ft | 15 kts | 50° |
| 2026-04-26 18:02 | 53.35280 | -2.28213 | 232 ft | 14 kts | 48° |
| 2026-04-26 18:02 | 53.35311 | -2.28156 | 234 ft | 0 kts | 46° |
| 2026-04-26 18:03 | 53.35311 | -2.28155 | 234 ft | 1 kts | 46° |
| 2026-04-26 18:03 | 53.35349 | -2.28092 | 239 ft | 14 kts | 44° |
| 2026-04-26 18:03 | 53.35409 | -2.27997 | 237 ft | 12 kts | 44° |
| 2026-04-26 18:03 | 53.35487 | -2.27920 | 240 ft | 14 kts | 9° |
| 2026-04-26 18:04 | 53.35620 | -2.27895 | 240 ft | 21 kts | 6° |
| 2026-04-26 18:04 | 53.35744 | -2.27874 | 247 ft | 12 kts | 6° |
| 2026-04-26 18:04 | 53.35804 | -2.27863 | 250 ft | 5 kts | 6° |
| 2026-04-26 18:05 | 53.35957 | -2.27863 | 255 ft | 18 kts | 337° |
| 2026-04-26 18:05 | 53.36061 | -2.28002 | 255 ft | 20 kts | 318° |
| 2026-04-26 18:05 | 53.36168 | -2.28172 | 255 ft | 22 kts | 315° |
| 2026-04-26 18:05 | 53.36283 | -2.28366 | 255 ft | 25 kts | 315° |
| 2026-04-26 18:06 | 53.36389 | -2.28478 | 255 ft | 18 kts | 348° |
| 2026-04-26 18:06 | 53.36482 | -2.28592 | 255 ft | 17 kts | 313° |
| 2026-04-26 18:06 | 53.36570 | -2.28740 | 255 ft | 18 kts | 314° |
| 2026-04-26 18:06 | 53.36642 | -2.28761 | 255 ft | 12 kts | 40° |
| 2026-04-26 18:07 | 53.36675 | -2.28677 | 255 ft | 7 kts | 104° |
| 2026-04-26 18:07 | 53.36646 | -2.28624 | 255 ft | 3 kts | 135° |
| 2026-04-26 18:07 | 53.36640 | -2.28615 | 255 ft | 0 kts | 135° |